createdAt,value
2022-10-19T00:01:14.681Z,16.83
2022-10-19T00:03:43.187Z,17.70
2022-10-19T00:06:15.626Z,15.98
2022-10-19T00:08:42.934Z,16.95
2022-10-19T00:11:10.523Z,16.10
2022-10-19T00:13:37.431Z,17.15
2022-10-19T00:16:11.517Z,16.95
2022-10-19T00:18:39.736Z,18.13
2022-10-19T00:21:08.561Z,17.20
2022-10-19T00:23:35.812Z,17.02
2022-10-19T00:26:03.040Z,17.90
2022-10-19T00:28:30.561Z,17.80
2022-10-19T00:31:06.657Z,16.25
2022-10-19T00:33:33.914Z,17.52
2022-10-19T00:36:01.559Z,16.27
2022-10-19T00:38:28.332Z,14.77
2022-10-19T00:40:55.309Z,15.70
2022-10-19T00:43:24.867Z,16.80
2022-10-19T00:45:52.955Z,15.48
2022-10-19T00:48:31.919Z,16.83
2022-10-19T00:51:00.394Z,16.45
2022-10-19T00:53:30.451Z,17.15
2022-10-19T00:55:59.409Z,16.02
2022-10-19T00:58:26.154Z,17.00
2022-10-19T01:00:53.293Z,15.73
2022-10-19T01:03:21.163Z,15.88
2022-10-19T01:05:48.638Z,16.65
2022-10-19T01:08:15.787Z,16.27
2022-10-19T01:11:03.976Z,14.88
2022-10-19T01:13:54.196Z,15.77
2022-10-19T01:16:42.478Z,14.73
2022-10-19T01:19:44.707Z,15.45
2022-10-19T01:22:36.348Z,14.57
2022-10-19T01:25:37.242Z,16.60
2022-10-19T01:28:34.620Z,15.10
2022-10-19T01:31:18.205Z,15.95
2022-10-19T01:34:14.967Z,16.95
2022-10-19T01:37:02.573Z,15.20
2022-10-19T01:39:51.981Z,14.55
2022-10-19T01:42:52.346Z,15.27
2022-10-19T01:45:25.127Z,14.52
2022-10-19T01:48:02.632Z,14.90
2022-10-19T01:50:44.777Z,15.02
2022-10-19T01:53:14.101Z,15.52
2022-10-19T01:55:44.897Z,13.13
2022-10-19T01:58:17.117Z,14.90
2022-10-19T02:00:46.770Z,15.32
2022-10-19T02:03:14.596Z,15.85
2022-10-19T02:05:45.803Z,14.18
2022-10-19T02:08:18.304Z,15.18
2022-10-19T02:10:46.474Z,15.05
2022-10-19T02:13:16.407Z,15.32
2022-10-19T02:15:47.662Z,14.52
2022-10-19T02:18:19.803Z,15.30
2022-10-19T02:20:47.132Z,15.05
2022-10-19T02:23:19.200Z,13.57
2022-10-19T02:25:46.543Z,15.93
2022-10-19T02:28:13.362Z,16.23
2022-10-19T02:30:40.408Z,15.13
2022-10-19T02:33:07.943Z,14.45
2022-10-19T02:35:35.064Z,15.57
2022-10-19T02:38:04.393Z,15.40
2022-10-19T02:40:36.676Z,14.23
2022-10-19T02:43:07.661Z,14.48
2022-10-19T02:45:44.845Z,14.90
2022-10-19T02:48:18.485Z,14.45
2022-10-19T02:50:47.770Z,13.93
2022-10-19T02:53:16.026Z,13.18
2022-10-19T02:55:43.453Z,12.93
2022-10-19T02:58:10.242Z,13.20
2022-10-19T03:00:37.238Z,12.70
2022-10-19T03:03:04.008Z,13.77
2022-10-19T03:05:31.059Z,13.30
2022-10-19T03:07:57.771Z,14.10
2022-10-19T03:10:24.685Z,12.73
2022-10-19T03:12:51.459Z,14.82
2022-10-19T03:15:19.667Z,15.35
2022-10-19T03:17:46.403Z,14.93
2022-10-19T03:20:13.359Z,15.57
2022-10-19T03:22:40.143Z,16.15
2022-10-19T03:25:07.505Z,14.73
2022-10-19T03:27:34.403Z,15.38
2022-10-19T03:30:01.668Z,14.43
2022-10-19T03:32:28.404Z,16.42
2022-10-19T03:34:55.347Z,14.10
2022-10-19T03:37:22.100Z,14.15
2022-10-19T03:39:49.002Z,15.40
2022-10-19T03:42:15.769Z,14.93
2022-10-19T03:44:42.743Z,16.42
2022-10-19T03:47:09.460Z,15.18
2022-10-19T03:49:38.116Z,15.13
2022-10-19T03:52:07.002Z,15.00
2022-10-19T03:54:33.928Z,14.40
2022-10-19T03:57:00.634Z,14.15
2022-10-19T03:59:27.663Z,13.85
2022-10-19T04:01:54.478Z,13.77
2022-10-19T04:04:21.470Z,13.68
2022-10-19T04:06:50.100Z,12.80
2022-10-19T04:09:19.279Z,12.25
2022-10-19T04:11:46.263Z,12.07
2022-10-19T04:14:22.708Z,12.65
2022-10-19T04:17:01.245Z,12.25
2022-10-19T04:19:28.301Z,13.55
2022-10-19T04:21:55.057Z,12.82
2022-10-19T04:24:22.224Z,11.23
2022-10-19T04:26:55.071Z,13.00
2022-10-19T04:29:26.469Z,12.50
2022-10-19T04:31:56.668Z,11.35
2022-10-19T04:34:24.189Z,12.75
2022-10-19T04:36:51.036Z,12.60
2022-10-19T04:39:17.992Z,12.00
2022-10-19T04:41:44.753Z,12.48
2022-10-19T04:44:11.741Z,12.20
2022-10-19T04:46:38.852Z,13.68
2022-10-19T04:49:06.906Z,12.18
2022-10-19T04:51:34.594Z,13.02
2022-10-19T04:54:04.850Z,13.23
2022-10-19T04:56:32.473Z,14.32
2022-10-19T04:59:00.881Z,12.75
2022-10-19T05:01:29.383Z,12.25
2022-10-19T05:03:59.492Z,13.63
2022-10-19T05:06:26.366Z,11.05
2022-10-19T05:08:53.368Z,11.38
2022-10-19T05:11:20.830Z,11.20
2022-10-19T05:13:48.522Z,11.93
2022-10-19T05:16:18.044Z,13.02
2022-10-19T05:18:56.099Z,12.85
2022-10-19T05:21:22.886Z,12.77
2022-10-19T05:23:54.506Z,12.95
2022-10-19T05:26:23.976Z,12.70
2022-10-19T05:28:57.064Z,11.55
2022-10-19T05:31:26.491Z,13.27
2022-10-19T05:33:53.781Z,11.50
2022-10-19T05:36:25.381Z,12.95
2022-10-19T05:38:54.028Z,12.38
2022-10-19T05:41:22.135Z,11.65
2022-10-19T05:43:53.779Z,13.75
2022-10-19T05:46:20.765Z,12.23
2022-10-19T05:48:48.043Z,12.95
2022-10-19T05:51:18.899Z,12.57
2022-10-19T05:53:46.369Z,12.40
2022-10-19T05:56:18.320Z,12.73
2022-10-19T05:58:46.094Z,12.15
2022-10-19T06:01:14.166Z,12.55
2022-10-19T06:03:41.208Z,12.63
2022-10-19T06:06:09.542Z,12.30
2022-10-19T06:08:37.869Z,12.25
2022-10-19T06:11:20.453Z,11.27
2022-10-19T06:13:50.660Z,11.13
2022-10-19T06:16:19.194Z,12.68
2022-10-19T06:18:46.683Z,12.15
2022-10-19T06:21:15.478Z,10.52
2022-10-19T06:26:15.185Z,12.07
2022-10-19T06:28:43.649Z,11.90
2022-10-19T06:31:11.432Z,11.57
2022-10-19T06:33:40.352Z,11.15
2022-10-19T06:36:16.367Z,11.15
2022-10-19T06:38:43.969Z,9.80
2022-10-19T06:41:11.721Z,10.38
2022-10-19T06:43:39.484Z,12.32
2022-10-19T06:46:11.708Z,10.95
2022-10-19T06:48:38.823Z,11.00
2022-10-19T06:51:09.667Z,10.65
2022-10-19T06:53:37.194Z,10.07
2022-10-19T06:56:05.980Z,10.25
2022-10-19T06:58:37.939Z,10.57
2022-10-19T07:01:07.695Z,10.88
2022-10-19T07:03:35.735Z,10.18
2022-10-19T07:06:05.570Z,11.13
2022-10-19T07:08:34.112Z,9.90
2022-10-19T07:11:03.345Z,11.55
2022-10-19T07:13:31.085Z,12.75
2022-10-19T07:15:59.982Z,13.43
2022-10-19T07:18:27.583Z,11.63
2022-10-19T07:21:05.721Z,11.77
2022-10-19T07:23:34.402Z,12.20
2022-10-19T07:26:12.699Z,12.43
2022-10-19T07:28:41.427Z,13.15
2022-10-19T07:31:11.949Z,11.73
2022-10-19T07:33:39.023Z,11.40
2022-10-19T07:36:08.598Z,11.95
2022-10-19T07:38:36.065Z,11.45
2022-10-19T07:41:08.580Z,12.63
2022-10-19T07:43:36.307Z,11.43
2022-10-19T07:46:06.290Z,11.55
2022-10-19T07:48:34.441Z,11.52
2022-10-19T07:51:02.587Z,12.18
2022-10-19T07:53:29.739Z,12.07
2022-10-19T07:55:56.553Z,11.45
2022-10-19T07:58:23.489Z,9.35
2022-10-19T08:00:50.244Z,8.48
2022-10-19T08:06:06.083Z,7.47
2022-10-19T08:08:33.911Z,7.43
2022-10-19T08:11:08.551Z,6.10
2022-10-19T08:13:35.941Z,5.55
2022-10-19T08:16:02.888Z,6.97
2022-10-19T08:21:02.465Z,8.50
2022-10-19T08:23:29.434Z,7.32
2022-10-19T08:25:59.947Z,7.85
2022-10-19T08:28:26.899Z,7.05
2022-10-19T08:30:58.073Z,7.85
2022-10-19T08:33:26.464Z,8.23
2022-10-19T08:35:54.173Z,6.72
2022-10-19T08:38:21.089Z,7.20
2022-10-19T08:40:47.983Z,6.53
2022-10-19T08:43:30.644Z,5.57
2022-10-19T08:46:10.286Z,7.20
2022-10-19T08:48:39.283Z,5.57
2022-10-19T08:51:09.292Z,5.68
2022-10-19T08:53:39.496Z,4.80
2022-10-19T08:56:49.830Z,4.45
2022-10-19T08:59:59.372Z,3.53
2022-10-19T09:02:54.411Z,4.07
2022-10-19T09:05:28.425Z,4.13
2022-10-19T09:07:55.802Z,4.05
2022-10-19T09:10:28.112Z,3.60
2022-10-19T09:13:05.445Z,4.03
2022-10-19T09:15:41.525Z,4.00
2022-10-19T09:18:12.220Z,3.50
2022-10-19T09:20:43.272Z,3.10
2022-10-19T09:23:40.500Z,3.20
2022-10-19T09:26:19.495Z,2.92
2022-10-19T09:28:58.482Z,2.70
2022-10-19T09:31:34.081Z,2.35
2022-10-19T09:34:07.669Z,2.30
2022-10-19T09:36:57.262Z,2.53
2022-10-19T09:39:28.660Z,3.10
2022-10-19T09:42:07.741Z,2.57
2022-10-19T09:44:34.841Z,2.80
2022-10-19T09:47:33.008Z,3.28
2022-10-19T09:50:15.300Z,3.13
2022-10-19T09:52:44.048Z,3.30
2022-10-19T09:55:19.770Z,3.17
2022-10-19T09:57:49.602Z,2.97
2022-10-19T10:00:25.552Z,2.90
2022-10-19T10:02:54.267Z,2.42
2022-10-19T10:05:32.458Z,2.75
2022-10-19T10:07:59.451Z,2.90
2022-10-19T10:10:38.791Z,2.83
2022-10-19T10:13:06.236Z,2.58
2022-10-19T10:15:43.999Z,2.60
2022-10-19T10:18:15.469Z,2.88
2022-10-19T10:23:27.659Z,3.70
2022-10-19T10:25:58.985Z,2.53
2022-10-19T10:28:28.534Z,2.78
2022-10-19T10:31:19.006Z,2.78
2022-10-19T10:33:54.536Z,2.42
2022-10-19T10:36:24.916Z,2.90
2022-10-19T10:38:54.684Z,2.30
2022-10-19T10:41:23.549Z,2.35
2022-10-19T10:43:59.566Z,1.83
2022-10-19T10:46:42.577Z,1.42
2022-10-19T10:49:21.448Z,0.90
2022-10-19T10:51:55.120Z,1.30
2022-10-19T10:54:23.752Z,1.00
2022-10-19T10:57:05.579Z,0.80
2022-10-19T10:59:56.515Z,0.65
2022-10-19T11:02:52.070Z,0.70
2022-10-19T11:05:24.366Z,1.20
2022-10-19T11:07:58.798Z,1.73
2022-10-19T11:10:33.304Z,1.60
2022-10-19T11:13:15.413Z,1.48
2022-10-19T11:16:03.113Z,1.50
2022-10-19T11:18:50.133Z,1.08
2022-10-19T11:21:19.637Z,2.35
2022-10-19T11:24:11.672Z,0.65
2022-10-19T11:26:41.356Z,1.02
2022-10-19T11:29:14.085Z,1.23
2022-10-19T11:31:48.330Z,0.82
2022-10-19T11:34:47.409Z,1.00
2022-10-19T11:37:28.969Z,0.95
2022-10-19T11:40:11.941Z,1.10
2022-10-19T11:42:57.253Z,1.42
2022-10-19T11:45:53.967Z,0.93
2022-10-19T11:48:52.959Z,1.08
2022-10-19T11:51:33.552Z,0.98
2022-10-19T11:54:14.572Z,0.90
2022-10-19T11:57:13.823Z,0.80
2022-10-19T11:59:52.608Z,1.02
2022-10-19T12:02:49.965Z,1.20
2022-10-19T12:05:21.873Z,1.00
2022-10-19T12:08:09.801Z,1.08
2022-10-19T12:10:57.512Z,0.80
2022-10-19T12:13:40.629Z,0.80
2022-10-19T12:16:11.012Z,1.10
2022-10-19T12:18:47.574Z,0.95
2022-10-19T12:21:24.968Z,1.25
2022-10-19T12:23:52.367Z,1.10
2022-10-19T12:26:22.290Z,1.25
2022-10-19T12:29:12.192Z,0.93
2022-10-19T12:31:39.789Z,1.08
2022-10-19T12:34:25.539Z,0.80
2022-10-19T12:37:23.801Z,0.88
2022-10-19T12:39:53.251Z,0.80
2022-10-19T12:42:33.241Z,1.02
2022-10-19T12:45:25.200Z,0.80
2022-10-19T12:48:19.069Z,0.80
2022-10-19T12:50:48.832Z,1.10
2022-10-19T12:53:41.065Z,1.08
2022-10-19T12:56:26.743Z,1.13
2022-10-19T12:59:01.437Z,1.75
2022-10-19T13:01:43.985Z,1.30
2022-10-19T13:04:15.285Z,0.93
2022-10-19T13:06:49.343Z,0.90
2022-10-19T13:09:41.991Z,1.35
2022-10-19T13:12:17.957Z,1.13
2022-10-19T13:14:57.287Z,1.17
2022-10-19T13:17:49.034Z,0.90
2022-10-19T13:20:16.218Z,1.13
2022-10-19T13:23:01.568Z,1.65
2022-10-19T13:25:30.746Z,1.10
2022-10-19T13:27:57.456Z,1.30
2022-10-19T13:30:36.434Z,1.52
2022-10-19T13:33:27.997Z,1.40
2022-10-19T13:36:00.999Z,0.98
2022-10-19T13:38:38.048Z,1.30
2022-10-19T13:41:18.250Z,0.93
2022-10-19T13:44:12.010Z,1.17
2022-10-19T13:46:38.899Z,1.60
2022-10-19T13:49:32.533Z,0.93
2022-10-19T13:55:35.899Z,1.05
2022-10-19T13:58:33.707Z,1.70
2022-10-19T14:01:18.924Z,1.55
2022-10-19T14:04:12.403Z,1.70
2022-10-19T14:06:47.496Z,1.70
2022-10-19T14:09:35.632Z,2.00
2022-10-19T14:12:09.009Z,1.70
2022-10-19T14:17:20.819Z,2.17
2022-10-19T14:19:51.972Z,2.75
2022-10-19T14:22:33.502Z,1.65
2022-10-19T14:25:17.030Z,1.73
2022-10-19T14:27:45.351Z,2.35
2022-10-19T14:30:27.556Z,2.35
2022-10-19T14:32:58.151Z,2.17
2022-10-19T14:35:31.907Z,2.15
2022-10-19T14:38:00.189Z,1.98
2022-10-19T14:40:30.964Z,2.83
2022-10-19T14:42:59.639Z,2.35
2022-10-19T14:45:31.963Z,2.25
2022-10-19T14:48:17.514Z,2.40
2022-10-19T14:50:55.637Z,3.35
2022-10-19T14:54:03.903Z,1.85
2022-10-19T14:56:41.152Z,1.63
2022-10-19T14:59:19.557Z,1.63
2022-10-19T15:01:52.498Z,1.65
2022-10-19T15:04:27.239Z,1.70
2022-10-19T15:06:55.463Z,1.88
2022-10-19T15:09:36.972Z,1.83
2022-10-19T15:12:17.954Z,2.28
2022-10-19T15:14:46.124Z,1.42
2022-10-19T15:17:31.886Z,2.17
2022-10-19T15:20:01.380Z,1.77
2022-10-19T15:22:31.644Z,1.80
2022-10-19T15:24:58.592Z,1.88
2022-10-19T15:27:37.070Z,1.95
2022-10-19T15:30:22.534Z,1.75
2022-10-19T15:32:54.799Z,2.78
2022-10-19T15:35:32.158Z,1.88
2022-10-19T15:38:10.131Z,2.40
2022-10-19T15:40:39.866Z,1.92
2022-10-19T15:43:34.689Z,2.30
2022-10-19T15:46:13.465Z,2.13
2022-10-19T15:48:40.340Z,2.00
2022-10-19T15:51:27.272Z,1.85
2022-10-19T15:54:07.525Z,1.98
2022-10-19T15:56:38.837Z,2.05
2022-10-19T15:59:12.013Z,2.08
2022-10-19T16:01:39.231Z,2.15
2022-10-19T16:04:06.303Z,1.90
2022-10-19T16:06:34.689Z,2.40
2022-10-19T16:09:02.512Z,2.00
2022-10-19T16:11:31.515Z,2.30
2022-10-19T16:13:58.487Z,2.55
2022-10-19T16:16:31.615Z,1.80
2022-10-19T16:18:59.581Z,2.05
2022-10-19T16:21:30.463Z,1.90
2022-10-19T16:23:57.853Z,2.08
2022-10-19T16:26:26.228Z,1.70
2022-10-19T16:28:54.563Z,1.45
2022-10-19T16:31:21.838Z,1.98
2022-10-19T16:33:48.773Z,2.35
2022-10-19T16:36:18.342Z,2.25
2022-10-19T16:38:45.253Z,2.17
2022-10-19T16:41:13.719Z,1.77
2022-10-19T16:43:40.759Z,2.50
2022-10-19T16:46:07.972Z,1.92
2022-10-19T16:48:35.112Z,2.28
2022-10-19T16:51:08.124Z,1.88
2022-10-19T16:53:35.371Z,2.35
2022-10-19T16:56:09.897Z,2.13
2022-10-19T16:58:37.358Z,1.92
2022-10-19T17:01:18.062Z,1.92
2022-10-19T17:03:49.148Z,2.25
2022-10-19T17:06:17.299Z,2.28
2022-10-19T17:09:23.256Z,2.20
2022-10-19T17:11:34.084Z,2.28
2022-10-19T17:14:03.895Z,2.35
2022-10-19T17:16:33.141Z,2.45
2022-10-19T17:19:01.957Z,2.45
2022-10-19T17:21:32.327Z,2.25
2022-10-19T17:24:02.157Z,3.05
2022-10-19T17:26:35.445Z,2.80
2022-10-19T17:29:03.377Z,2.35
2022-10-19T17:31:30.572Z,2.50
2022-10-19T17:33:58.091Z,2.67
2022-10-19T17:36:28.219Z,2.70
2022-10-19T17:38:57.544Z,2.33
2022-10-19T17:41:25.518Z,2.72
2022-10-19T17:43:53.072Z,2.80
2022-10-19T17:46:23.878Z,2.35
2022-10-19T17:48:51.340Z,2.70
2022-10-19T17:51:27.410Z,3.17
2022-10-19T17:53:57.255Z,2.92
2022-10-19T17:56:24.823Z,3.50
2022-10-19T17:58:51.923Z,15.20
2022-10-19T18:01:20.914Z,7.30
2022-10-19T18:03:48.496Z,7.45
2022-10-19T18:06:21.928Z,4.75
2022-10-19T18:08:52.073Z,2.72
2022-10-19T18:11:24.864Z,3.00
2022-10-19T18:13:54.279Z,3.25
2022-10-19T18:16:30.074Z,3.15
2022-10-19T18:18:58.800Z,3.53
2022-10-19T18:21:31.420Z,2.90
2022-10-19T18:24:00.452Z,2.97
2022-10-19T18:26:30.322Z,3.13
2022-10-19T18:28:58.327Z,3.03
2022-10-19T18:31:30.623Z,3.83
2022-10-19T18:34:02.916Z,3.37
2022-10-19T18:36:30.672Z,3.47
2022-10-19T18:39:02.913Z,3.60
2022-10-19T18:41:30.387Z,3.67
2022-10-19T18:44:03.143Z,3.35
2022-10-19T18:46:33.885Z,2.95
2022-10-19T18:49:01.578Z,3.92
2022-10-19T18:51:28.970Z,4.13
2022-10-19T18:53:56.037Z,3.25
2022-10-19T18:56:23.192Z,3.55
2022-10-19T18:58:50.473Z,4.15
2022-10-19T19:01:24.088Z,3.42
2022-10-19T19:03:53.548Z,3.40
2022-10-19T19:06:22.725Z,3.70
2022-10-19T19:08:49.713Z,3.55
2022-10-19T19:11:29.652Z,3.60
2022-10-19T19:14:06.105Z,3.33
2022-10-19T19:16:35.662Z,3.08
2022-10-19T19:19:03.076Z,3.10
2022-10-19T19:21:31.660Z,3.40
2022-10-19T19:24:00.862Z,4.07
2022-10-19T19:26:30.863Z,3.55
2022-10-19T19:28:58.361Z,3.58
2022-10-19T19:31:25.580Z,3.83
2022-10-19T19:33:52.632Z,3.40
2022-10-19T19:36:20.372Z,4.53
2022-10-19T19:38:49.019Z,3.50
2022-10-19T19:41:16.440Z,3.50
2022-10-19T19:43:43.869Z,3.25
2022-10-19T19:46:16.706Z,3.80
2022-10-19T19:48:45.902Z,4.05
2022-10-19T19:51:16.028Z,3.30
2022-10-19T19:53:43.444Z,3.70
2022-10-19T19:56:12.256Z,3.65
2022-10-19T19:58:40.118Z,3.00
2022-10-19T20:01:16.545Z,2.67
2022-10-19T20:03:44.095Z,3.10
2022-10-19T20:06:10.999Z,2.80
2022-10-19T20:08:38.611Z,2.97
2022-10-19T20:11:08.882Z,2.70
2022-10-19T20:13:36.807Z,2.65
2022-10-19T20:16:08.646Z,3.20
2022-10-19T20:18:35.956Z,3.17
2022-10-19T20:21:03.968Z,2.78
2022-10-19T20:23:32.495Z,2.97
2022-10-19T20:25:59.250Z,3.47
2022-10-19T20:28:26.815Z,2.88
2022-10-19T20:31:01.749Z,2.80
2022-10-19T20:33:32.240Z,2.85
2022-10-19T20:36:06.514Z,3.42
2022-10-19T20:38:34.724Z,2.95
2022-10-19T20:41:09.905Z,3.47
2022-10-19T20:43:37.768Z,3.08
2022-10-19T20:46:13.210Z,2.72
2022-10-19T20:48:40.491Z,2.60
2022-10-19T20:51:18.961Z,3.08
2022-10-19T20:53:50.626Z,2.55
2022-10-19T20:56:21.661Z,3.20
2022-10-19T20:58:54.637Z,2.60
2022-10-19T21:01:21.966Z,2.43
2022-10-19T21:03:57.291Z,2.38
2022-10-19T21:06:28.848Z,2.35
2022-10-19T21:08:56.252Z,3.08
2022-10-19T21:11:28.969Z,2.92
2022-10-19T21:13:58.843Z,3.00
2022-10-19T21:16:27.561Z,2.95
2022-10-19T21:18:55.006Z,2.65
2022-10-19T21:21:24.961Z,3.08
2022-10-19T21:23:55.375Z,2.47
2022-10-19T21:26:25.113Z,2.55
2022-10-19T21:28:55.069Z,2.40
2022-10-19T21:31:23.403Z,2.40
2022-10-19T21:33:53.661Z,3.03
2022-10-19T21:36:21.797Z,2.13
2022-10-19T21:38:48.743Z,2.83
2022-10-19T21:41:20.803Z,3.08
2022-10-19T21:43:51.043Z,2.70
2022-10-19T21:46:19.752Z,2.58
2022-10-19T21:48:47.156Z,3.10
2022-10-19T21:51:16.806Z,2.63
2022-10-19T21:53:44.088Z,2.90
2022-10-19T21:56:10.868Z,2.55
2022-10-19T21:58:37.885Z,2.67
2022-10-19T22:01:08.599Z,2.65
2022-10-19T22:03:35.553Z,2.20
2022-10-19T22:06:02.353Z,2.25
2022-10-19T22:08:29.432Z,2.75
2022-10-19T22:10:56.504Z,2.40
2022-10-19T22:13:23.517Z,2.67
2022-10-19T22:15:50.221Z,2.55
2022-10-19T22:18:17.204Z,2.25
2022-10-19T22:20:44.036Z,2.53
2022-10-19T22:23:10.962Z,2.47
2022-10-19T22:25:37.731Z,2.65
2022-10-19T22:28:04.683Z,2.22
2022-10-19T22:30:31.437Z,2.55
2022-10-19T22:32:58.403Z,2.55
2022-10-19T22:35:25.150Z,2.30
2022-10-19T22:37:52.111Z,2.58
2022-10-19T22:40:18.873Z,2.83
2022-10-19T22:42:58.033Z,2.65
2022-10-19T22:45:24.799Z,2.40
2022-10-19T22:47:51.743Z,2.20
2022-10-19T22:50:18.500Z,2.13
2022-10-19T22:52:45.448Z,2.50
2022-10-19T22:55:12.288Z,2.70
2022-10-19T22:57:39.301Z,2.88
2022-10-19T23:00:06.700Z,2.17
2022-10-19T23:02:34.012Z,2.00
2022-10-19T23:05:01.026Z,2.75
2022-10-19T23:07:28.007Z,2.33
2022-10-19T23:09:54.826Z,2.47
2022-10-19T23:12:22.020Z,2.70
2022-10-19T23:14:48.754Z,2.83
2022-10-19T23:17:15.697Z,2.42
2022-10-19T23:19:42.526Z,2.80
2022-10-19T23:22:09.571Z,2.47
2022-10-19T23:24:36.315Z,2.47
2022-10-19T23:27:03.775Z,2.40
2022-10-19T23:29:30.628Z,2.67
2022-10-19T23:31:57.606Z,2.72
2022-10-19T23:34:24.421Z,3.08
2022-10-19T23:36:51.446Z,3.17
2022-10-19T23:39:18.321Z,2.40
2022-10-19T23:41:45.249Z,2.88
2022-10-19T23:44:12.141Z,2.97
2022-10-19T23:46:39.048Z,2.10
2022-10-19T23:49:05.846Z,2.42
2022-10-19T23:51:32.780Z,3.00
2022-10-19T23:53:59.508Z,2.15
2022-10-19T23:56:28.470Z,3.17
2022-10-19T23:58:56.173Z,2.15
